Time;durP1;ratioP1;P1;durP2;ratioP2;P2;SDS_P1;SDS_P2;PMS_P1;PMS_P2;Temp;Humidity;BMP_temperature;BMP_pressure;BME280_temperature;BME280_humidity;BME280_pressure;Samples;Min_cycle;Max_cycle;Signal;HPM_P1;HPM_P2
2022/03/17 00:00:24;;;;;;;48.35;38.17;;;10.10;99.90;;;;;;5054504;28;20228;-66
2022/03/17 00:02:51;;;;;;;51.35;39.60;;;10.10;99.90;;;;;;5052845;28;20569;-66
2022/03/17 00:05:18;;;;;;;63.97;48.78;;;10.10;99.90;;;;;;5054616;28;20225;-66
2022/03/17 00:07:46;;;;;;;52.95;40.28;;;10.10;99.90;;;;;;5055377;28;20298;-65
2022/03/17 00:10:15;;;;;;;42.85;34.45;;;10.10;99.90;;;;;;5047609;28;20291;-65
2022/03/17 00:12:42;;;;;;;43.80;33.95;;;10.20;99.90;;;;;;5055167;28;20283;-65
2022/03/17 00:15:10;;;;;;;64.88;49.63;;;10.20;99.90;;;;;;5054873;28;20233;-65
2022/03/17 00:17:37;;;;;;;47.65;37.33;;;10.20;99.90;;;;;;5051183;28;20236;-65
2022/03/17 00:20:07;;;;;;;52.35;40.10;;;10.20;99.90;;;;;;5047649;28;20738;-65
2022/03/17 00:22:34;;;;;;;54.30;41.33;;;10.20;99.90;;;;;;5057571;28;20671;-65
2022/03/17 00:25:02;;;;;;;46.50;35.85;;;10.20;99.90;;;;;;5054794;28;20235;-65
2022/03/17 00:27:29;;;;;;;44.00;35.53;;;10.10;99.90;;;;;;5054603;28;20654;-65
2022/03/17 00:29:56;;;;;;;50.33;39.65;;;10.00;99.90;;;;;;5052888;28;20228;-65
2022/03/17 00:32:24;;;;;;;52.00;38.08;;;10.00;99.90;;;;;;5054441;28;20304;-65
2022/03/17 00:37:36;;;;;;;44.13;35.40;;;10.00;99.90;;;;;;5054466;28;21007;-66
2022/03/17 00:40:06;;;;;;;58.72;43.03;;;10.00;99.90;;;;;;5041306;28;20312;-66
2022/03/17 00:42:33;;;;;;;52.47;41.03;;;10.00;99.90;;;;;;5053968;28;20225;-66
2022/03/17 00:45:00;;;;;;;44.25;35.88;;;10.00;99.90;;;;;;5054733;28;20233;-65
2022/03/17 00:47:27;;;;;;;48.60;36.30;;;10.00;99.90;;;;;;5054012;28;20221;-66
2022/03/17 00:49:57;;;;;;;55.92;41.67;;;10.00;99.90;;;;;;5054213;28;20226;-65
2022/03/17 00:52:24;;;;;;;60.03;46.47;;;9.90;99.90;;;;;;5053639;28;20228;-65
2022/03/17 00:54:50;;;;;;;57.92;43.92;;;9.90;99.90;;;;;;5054333;28;20239;-66
2022/03/17 00:57:18;;;;;;;54.92;41.70;;;9.90;99.90;;;;;;5053878;28;20236;-65
2022/03/17 00:59:45;;;;;;;54.80;39.78;;;9.90;99.90;;;;;;5054589;28;20225;-65
2022/03/17 01:02:15;;;;;;;52.40;39.47;;;9.90;99.90;;;;;;5053917;28;20233;-65
2022/03/17 01:04:42;;;;;;;45.28;36.72;;;9.80;99.90;;;;;;5054166;28;20965;-65
2022/03/17 01:07:09;;;;;;;60.33;46.60;;;9.80;99.90;;;;;;5054239;28;20579;-65
2022/03/17 01:09:37;;;;;;;73.72;54.17;;;9.70;99.90;;;;;;5053676;28;20217;-66
2022/03/17 01:12:05;;;;;;;61.03;48.88;;;9.60;99.90;;;;;;5054027;28;20232;-65
2022/03/17 01:14:33;;;;;;;48.20;37.55;;;9.60;99.90;;;;;;5053694;28;20229;-65
2022/03/17 01:17:00;;;;;;;71.10;52.45;;;9.60;99.90;;;;;;5053268;28;20229;-65
2022/03/17 01:19:27;;;;;;;47.30;38.97;;;9.50;99.90;;;;;;5053166;28;20217;-65
2022/03/17 01:21:54;;;;;;;50.42;37.50;;;9.50;99.90;;;;;;5053772;28;20233;-66
2022/03/17 01:24:21;;;;;;;49.22;37.20;;;9.40;99.90;;;;;;5053537;28;20236;-66
2022/03/17 01:26:47;;;;;;;55.85;41.53;;;9.40;99.90;;;;;;5052996;28;20217;-66
2022/03/17 01:29:14;;;;;;;52.17;42.00;;;9.30;99.90;;;;;;5053667;28;20225;-65
2022/03/17 01:31:43;;;;;;;43.75;34.00;;;9.20;99.90;;;;;;5052603;28;20583;-66
2022/03/17 01:34:09;;;;;;;55.53;40.53;;;9.20;99.90;;;;;;5039499;28;20237;-65
2022/03/17 01:36:36;;;;;;;54.78;38.78;;;9.20;99.90;;;;;;5047701;28;20236;-66
2022/03/17 01:39:05;;;;;;;48.00;37.92;;;9.20;99.90;;;;;;5052404;28;20225;-65
2022/03/17 01:41:32;;;;;;;49.88;37.72;;;9.30;99.90;;;;;;5047177;28;20572;-65
2022/03/17 01:43:59;;;;;;;53.92;37.78;;;9.30;99.90;;;;;;5053047;28;20229;-65
2022/03/17 01:46:26;;;;;;;51.85;37.38;;;9.30;99.90;;;;;;5052025;28;20232;-65
2022/03/17 01:48:54;;;;;;;57.17;44.72;;;9.30;99.90;;;;;;5053363;28;20225;-65
2022/03/17 01:51:21;;;;;;;48.05;37.13;;;9.30;99.90;;;;;;5046237;28;20235;-66
2022/03/17 01:53:48;;;;;;;48.78;38.75;;;9.30;99.90;;;;;;5053446;28;20606;-66
2022/03/17 01:56:17;;;;;;;45.20;34.33;;;9.20;99.90;;;;;;5053118;28;20225;-65
2022/03/17 01:58:44;;;;;;;58.38;45.00;;;9.10;99.90;;;;;;5052797;28;20551;-65
2022/03/17 02:01:12;;;;;;;52.17;39.15;;;9.10;99.90;;;;;;5052982;28;20236;-65
2022/03/17 02:03:43;;;;;;;48.28;37.88;;;9.10;99.90;;;;;;5052796;28;20231;-65
2022/03/17 02:06:11;;;;;;;47.15;38.10;;;9.10;99.90;;;;;;5052094;28;20261;-64
2022/03/17 02:08:38;;;;;;;53.42;41.35;;;9.00;99.90;;;;;;5052052;28;20229;-65
2022/03/17 02:13:49;;;;;;;45.80;37.55;;;9.00;99.90;;;;;;5052816;28;20298;-64
2022/03/17 02:16:16;;;;;;;60.33;47.65;;;9.00;99.90;;;;;;5052322;28;20225;-65
2022/03/17 02:18:46;;;;;;;52.13;37.88;;;9.00;99.90;;;;;;5052308;28;20283;-65
2022/03/17 02:21:14;;;;;;;63.53;46.10;;;9.10;99.90;;;;;;5052609;28;20248;-64
2022/03/17 02:26:28;;;;;;;59.38;43.83;;;9.10;99.90;;;;;;5052485;28;20570;-65
2022/03/17 02:28:55;;;;;;;62.63;45.85;;;9.00;99.90;;;;;;5039532;28;20221;-65
2022/03/17 02:31:23;;;;;;;58.03;43.17;;;9.00;99.90;;;;;;5052564;28;20233;-66
2022/03/17 02:33:50;;;;;;;56.85;44.30;;;9.00;99.90;;;;;;5052006;28;20271;-66
2022/03/17 02:36:18;;;;;;;58.20;42.15;;;9.00;99.90;;;;;;5052359;28;20279;-65
2022/03/17 02:38:47;;;;;;;49.38;37.35;;;9.00;99.90;;;;;;5052311;28;20272;-65
2022/03/17 02:41:21;;;;;;;50.67;41.75;;;9.00;99.90;;;;;;5052396;28;20229;-65
2022/03/17 02:43:50;;;;;;;61.38;46.25;;;9.00;99.90;;;;;;5052004;28;20306;-65
2022/03/17 02:46:17;;;;;;;55.08;41.13;;;8.90;99.90;;;;;;5052437;28;20236;-65
2022/03/17 02:48:44;;;;;;;55.45;43.50;;;8.90;99.90;;;;;;5052164;28;20228;-65
2022/03/17 02:51:11;;;;;;;56.30;43.83;;;8.80;99.90;;;;;;5052167;28;20290;-64
2022/03/17 02:53:37;;;;;;;53.80;40.15;;;8.90;99.90;;;;;;5052154;28;20229;-65
2022/03/17 02:56:06;;;;;;;57.58;41.40;;;8.80;99.90;;;;;;5052401;28;20228;-66
2022/03/17 02:58:33;;;;;;;44.75;37.38;;;8.80;99.90;;;;;;5051926;28;20232;-65
2022/03/17 03:01:00;;;;;;;48.75;38.78;;;8.90;99.90;;;;;;5052445;28;20312;-65
2022/03/17 03:03:27;;;;;;;49.60;40.15;;;8.80;99.90;;;;;;5052418;28;20225;-65
2022/03/17 03:05:53;;;;;;;47.70;39.65;;;8.80;99.90;;;;;;5051602;28;21318;-66
2022/03/17 03:08:21;;;;;;;50.92;39.17;;;8.70;99.90;;;;;;5052346;28;20221;-65
2022/03/17 03:10:48;;;;;;;49.35;39.22;;;8.80;99.90;;;;;;5051496;28;20229;-65
2022/03/17 03:13:17;;;;;;;52.25;42.80;;;8.80;99.90;;;;;;5052382;28;20323;-65
2022/03/17 03:15:44;;;;;;;54.58;40.17;;;8.80;99.90;;;;;;5050169;28;20232;-64
2022/03/17 03:18:11;;;;;;;57.17;43.17;;;8.80;99.90;;;;;;5049898;28;20237;-65
2022/03/17 03:20:38;;;;;;;55.78;42.90;;;8.80;99.90;;;;;;5055633;28;20225;-64
2022/03/17 03:23:05;;;;;;;53.05;42.08;;;8.80;99.90;;;;;;5056232;28;20608;-65
2022/03/17 03:25:32;;;;;;;63.38;48.40;;;8.80;99.90;;;;;;5055623;28;20221;-65
2022/03/17 03:28:05;;;;;;;52.63;39.83;;;8.70;99.90;;;;;;5056045;28;20220;-65
2022/03/17 03:30:33;;;;;;;58.83;45.45;;;8.70;99.90;;;;;;5055636;28;20239;-66
2022/03/17 03:33:01;;;;;;;53.72;42.17;;;8.70;99.90;;;;;;5056026;28;20225;-65
2022/03/17 03:38:12;;;;;;;45.55;37.97;;;8.70;99.90;;;;;;5055352;28;20616;-65
2022/03/17 03:40:41;;;;;;;52.75;39.17;;;8.70;99.90;;;;;;5056021;28;20226;-64
2022/03/17 03:43:10;;;;;;;45.72;38.88;;;8.70;99.90;;;;;;5055729;28;20228;-65
2022/03/17 03:45:38;;;;;;;47.78;38.88;;;8.80;99.90;;;;;;5055266;28;20220;-65
2022/03/17 03:48:05;;;;;;;58.45;45.72;;;8.80;99.90;;;;;;5055599;28;20221;-65
2022/03/17 03:50:32;;;;;;;57.72;42.28;;;8.80;99.90;;;;;;5055067;28;21196;-65
2022/03/17 03:52:59;;;;;;;47.58;40.47;;;8.80;99.90;;;;;;5055563;28;20221;-65
2022/03/17 03:55:26;;;;;;;51.17;42.90;;;8.80;99.90;;;;;;5055310;28;20224;-65
2022/03/17 03:57:53;;;;;;;61.70;46.42;;;8.80;99.90;;;;;;5055458;28;20272;-65
2022/03/17 04:00:34;;;;;;;54.58;43.50;;;8.80;99.90;;;;;;5055085;28;20229;-66
2022/03/17 04:03:04;;;;;;;62.00;47.70;;;8.90;99.90;;;;;;5042747;28;20682;-65
2022/03/17 04:05:37;;;;;;;56.63;44.03;;;8.90;99.90;;;;;;5055042;28;20235;-65
2022/03/17 04:08:04;;;;;;;59.95;46.22;;;8.80;99.90;;;;;;5055038;28;20639;-66
2022/03/17 04:10:31;;;;;;;51.33;41.78;;;8.90;99.90;;;;;;5054571;28;20244;-65
2022/03/17 04:12:58;;;;;;;53.67;42.33;;;8.90;99.90;;;;;;5055446;28;20805;-65
2022/03/17 04:15:25;;;;;;;54.83;43.42;;;8.90;99.90;;;;;;5054723;28;20233;-65
2022/03/17 04:17:52;;;;;;;59.63;46.17;;;8.90;99.90;;;;;;5054930;28;20229;-65
2022/03/17 04:20:22;;;;;;;52.30;42.03;;;8.80;99.90;;;;;;5054547;28;20229;-65
2022/03/17 04:22:49;;;;;;;53.75;43.72;;;8.80;99.90;;;;;;5054890;28;20282;-65
2022/03/17 04:25:16;;;;;;;65.20;43.13;;;8.80;99.90;;;;;;5054594;28;20224;-64
2022/03/17 04:27:43;;;;;;;50.67;38.60;;;8.70;99.90;;;;;;5054988;28;20213;-65
2022/03/17 04:30:10;;;;;;;55.38;43.28;;;8.70;99.90;;;;;;5054069;28;20225;-65
2022/03/17 04:32:41;;;;;;;57.38;44.65;;;8.70;99.90;;;;;;5053566;28;20238;-64
2022/03/17 04:35:09;;;;;;;50.85;39.95;;;8.70;99.90;;;;;;5052978;28;20232;-65
2022/03/17 04:37:37;;;;;;;53.60;42.30;;;8.70;99.90;;;;;;5053274;28;20228;-64
2022/03/17 04:40:06;;;;;;;53.45;42.35;;;8.70;99.90;;;;;;5054874;28;20237;-65
2022/03/17 04:42:33;;;;;;;58.25;43.25;;;8.70;99.90;;;;;;5054480;28;20729;-66
2022/03/17 04:45:00;;;;;;;56.05;43.35;;;8.70;99.90;;;;;;5054114;28;20222;-65
2022/03/17 04:47:27;;;;;;;54.75;41.90;;;8.70;99.90;;;;;;5054230;28;20228;-65
2022/03/17 04:49:54;;;;;;;53.63;39.65;;;8.70;99.90;;;;;;5054595;28;20252;-65
2022/03/17 04:55:07;;;;;;;60.42;44.40;;;8.70;99.90;;;;;;5043471;28;20745;-65
2022/03/17 04:57:34;;;;;;;53.92;44.80;;;8.60;99.90;;;;;;5053986;28;20232;-66
2022/03/17 05:00:02;;;;;;;52.00;43.42;;;8.60;99.90;;;;;;5054553;28;20308;-66
2022/03/17 05:02:28;;;;;;;57.55;43.78;;;8.60;99.90;;;;;;5053866;28;20236;-65
2022/03/17 05:04:55;;;;;;;58.10;45.55;;;8.70;99.90;;;;;;5054435;28;20229;-65
2022/03/17 05:07:22;;;;;;;51.60;42.22;;;8.70;99.90;;;;;;5053761;28;20232;-65
2022/03/17 05:09:49;;;;;;;53.85;42.25;;;8.70;99.90;;;;;;5054290;28;20560;-66
2022/03/17 05:12:17;;;;;;;63.70;49.45;;;8.70;99.90;;;;;;5054076;28;20239;-65
2022/03/17 05:14:44;;;;;;;59.90;43.35;;;8.70;99.90;;;;;;5053881;28;20213;-66
2022/03/17 05:17:11;;;;;;;58.35;43.45;;;8.60;99.90;;;;;;5048372;28;20726;-65
2022/03/17 05:19:38;;;;;;;64.75;46.47;;;8.70;99.90;;;;;;5053628;28;20279;-65
2022/03/17 05:22:05;;;;;;;55.58;43.40;;;8.70;99.90;;;;;;5053876;28;20236;-65
2022/03/17 05:24:33;;;;;;;52.97;45.25;;;8.70;99.90;;;;;;5053706;28;20686;-66
2022/03/17 05:27:00;;;;;;;57.40;46.90;;;8.70;99.90;;;;;;5052486;28;20300;-65
2022/03/17 05:29:29;;;;;;;57.70;46.55;;;8.70;99.90;;;;;;5053439;28;20664;-65
2022/03/17 05:31:55;;;;;;;58.88;47.13;;;8.70;99.90;;;;;;5053841;28;20687;-65
2022/03/17 05:34:22;;;;;;;58.97;46.60;;;8.70;99.90;;;;;;5053339;28;20265;-65
2022/03/17 05:36:49;;;;;;;62.75;48.20;;;8.60;99.90;;;;;;5053698;28;20251;-65
2022/03/17 05:39:16;;;;;;;58.97;47.97;;;8.60;99.90;;;;;;5053611;28;20225;-66
2022/03/17 05:41:43;;;;;;;56.45;47.13;;;8.50;99.90;;;;;;5052118;28;20573;-65
2022/03/17 05:44:10;;;;;;;65.78;48.95;;;8.50;99.90;;;;;;5053549;28;20240;-65
2022/03/17 05:46:43;;;;;;;61.38;47.95;;;8.50;99.90;;;;;;5052772;28;20217;-66
2022/03/17 05:49:09;;;;;;;62.22;45.55;;;8.50;99.90;;;;;;5053465;28;20221;-65
2022/03/17 05:51:36;;;;;;;60.20;47.58;;;8.60;99.90;;;;;;5052635;28;20703;-66
2022/03/17 05:54:03;;;;;;;63.85;49.53;;;8.60;99.90;;;;;;5053610;28;20225;-65
2022/03/17 05:56:30;;;;;;;66.07;51.58;;;8.60;99.90;;;;;;5052829;28;20225;-66
2022/03/17 05:58:57;;;;;;;58.90;48.75;;;8.60;99.90;;;;;;5053152;28;20703;-65
2022/03/17 06:01:24;;;;;;;62.88;51.90;;;8.70;99.90;;;;;;5052759;28;20233;-65
2022/03/17 06:03:52;;;;;;;59.92;46.83;;;8.60;99.90;;;;;;5053125;28;20236;-65
2022/03/17 06:06:19;;;;;;;64.00;50.83;;;8.60;99.90;;;;;;5053139;28;20236;-65
2022/03/17 06:08:45;;;;;;;71.85;54.50;;;8.60;99.90;;;;;;5052423;28;20221;-65
2022/03/17 06:11:12;;;;;;;68.32;50.80;;;8.60;99.90;;;;;;5052907;28;20237;-65
2022/03/17 06:13:39;;;;;;;67.57;51.80;;;8.50;99.90;;;;;;5052515;28;20225;-66
2022/03/17 06:16:07;;;;;;;62.05;51.15;;;8.50;99.90;;;;;;5053254;28;20251;-65
2022/03/17 06:18:33;;;;;;;67.32;52.05;;;8.50;99.90;;;;;;5046827;28;20225;-65
2022/03/17 06:21:02;;;;;;;71.82;53.30;;;8.50;99.90;;;;;;5052994;28;20240;-66
2022/03/17 06:23:28;;;;;;;79.03;59.28;;;8.50;99.90;;;;;;5052571;28;20225;-66
2022/03/17 06:25:55;;;;;;;68.07;54.10;;;8.40;99.90;;;;;;5052890;28;20236;-65
2022/03/17 06:28:22;;;;;;;75.93;53.25;;;8.50;99.90;;;;;;5052754;28;20308;-65
2022/03/17 06:30:49;;;;;;;74.68;56.40;;;8.50;99.90;;;;;;5052255;28;20233;-65
2022/03/17 06:33:16;;;;;;;70.30;52.92;;;8.40;99.90;;;;;;5052472;28;20680;-65
2022/03/17 06:35:43;;;;;;;72.53;56.65;;;8.40;99.90;;;;;;5047078;28;20230;-65
2022/03/17 06:38:11;;;;;;;69.65;52.13;;;8.40;99.90;;;;;;5048045;28;20229;-65
2022/03/17 06:40:38;;;;;;;65.18;51.33;;;8.40;99.90;;;;;;5052096;28;20233;-65
2022/03/17 06:43:06;;;;;;;67.25;49.70;;;8.40;99.90;;;;;;5052647;28;20233;-65
2022/03/17 06:45:33;;;;;;;67.40;51.40;;;8.40;99.90;;;;;;5052038;28;20232;-64
2022/03/17 06:48:00;;;;;;;75.97;55.53;;;8.40;99.90;;;;;;5052462;28;20229;-66
2022/03/17 06:50:27;;;;;;;70.50;54.38;;;8.40;99.90;;;;;;5051946;28;20675;-64
2022/03/17 06:52:54;;;;;;;68.18;51.22;;;8.40;99.90;;;;;;5051993;28;20245;-65
2022/03/17 06:55:23;;;;;;;65.10;51.50;;;8.40;99.90;;;;;;5052522;28;20228;-66
2022/03/17 06:57:50;;;;;;;68.57;53.63;;;8.40;99.90;;;;;;5052100;28;20229;-65
2022/03/17 07:00:19;;;;;;;78.78;54.72;;;8.30;99.90;;;;;;5052244;28;20221;-64
2022/03/17 07:02:46;;;;;;;76.55;54.47;;;8.40;99.90;;;;;;5051414;28;20249;-64
2022/03/17 07:05:13;;;;;;;69.97;53.35;;;8.40;99.90;;;;;;5046994;28;20255;-64
2022/03/17 07:07:40;;;;;;;75.25;55.00;;;8.50;99.90;;;;;;5051828;28;20228;-64
2022/03/17 07:10:09;;;;;;;61.70;51.20;;;8.50;99.90;;;;;;5052125;28;20232;-65
2022/03/17 07:12:37;;;;;;;74.57;51.83;;;8.50;99.90;;;;;;5051728;28;20224;-65
2022/03/17 07:15:05;;;;;;;66.63;51.15;;;8.60;99.90;;;;;;5052415;28;20267;-65
2022/03/17 07:17:39;;;;;;;63.10;52.92;;;8.70;99.90;;;;;;5051605;28;20682;-65
2022/03/17 07:20:08;;;;;;;74.07;52.72;;;8.70;99.90;;;;;;5052223;28;20311;-65
2022/03/17 07:22:35;;;;;;;64.75;49.17;;;8.60;99.90;;;;;;5051623;28;20270;-65
2022/03/17 07:25:02;;;;;;;67.38;51.50;;;8.70;99.90;;;;;;5052185;28;20225;-65
2022/03/17 07:27:29;;;;;;;66.55;52.08;;;8.80;99.90;;;;;;5052122;28;20220;-65
2022/03/17 07:29:58;;;;;;;67.90;52.80;;;8.80;99.90;;;;;;5051936;28;20954;-64
2022/03/17 07:32:24;;;;;;;71.13;54.30;;;8.90;99.90;;;;;;5052150;28;20221;-65
2022/03/17 07:34:51;;;;;;;69.43;51.60;;;8.90;99.90;;;;;;5051767;28;20235;-65
2022/03/17 07:37:19;;;;;;;70.03;54.15;;;8.90;99.90;;;;;;5051935;28;20221;-66
2022/03/17 07:39:48;;;;;;;68.15;52.83;;;8.90;99.90;;;;;;5051571;28;20225;-66
2022/03/17 07:42:15;;;;;;;72.70;53.80;;;8.90;99.90;;;;;;5051961;28;20249;-65
2022/03/17 07:44:41;;;;;;;66.22;52.80;;;8.90;99.90;;;;;;5051468;28;20224;-65
2022/03/17 07:47:09;;;;;;;73.40;55.85;;;9.00;99.90;;;;;;5051980;28;20227;-65
2022/03/17 07:49:37;;;;;;;66.30;52.33;;;9.00;99.90;;;;;;5051662;28;20699;-66
2022/03/17 07:52:05;;;;;;;71.75;53.05;;;9.00;99.90;;;;;;5051433;28;20232;-66
2022/03/17 07:54:32;;;;;;;69.90;56.38;;;9.10;99.90;;;;;;5051992;28;20568;-65
2022/03/17 07:57:00;;;;;;;69.75;53.05;;;9.10;99.90;;;;;;5051282;28;20990;-65
2022/03/17 07:59:27;;;;;;;67.43;55.80;;;9.20;99.90;;;;;;5050983;28;20236;-64
2022/03/17 08:01:54;;;;;;;71.20;56.70;;;9.20;99.90;;;;;;5049733;28;20240;-66
2022/03/17 08:04:22;;;;;;;71.85;54.70;;;9.30;99.90;;;;;;5043691;28;20221;-66
2022/03/17 08:06:50;;;;;;;79.18;57.97;;;9.20;99.90;;;;;;5040308;28;20232;-66
2022/03/17 08:09:17;;;;;;;63.95;52.25;;;9.20;99.90;;;;;;5053703;28;20304;-65
2022/03/17 08:11:46;;;;;;;70.15;53.78;;;9.30;99.90;;;;;;5053159;28;20417;-65
2022/03/17 08:14:16;;;;;;;66.55;55.05;;;9.40;99.90;;;;;;5053499;28;20270;-66
2022/03/17 08:16:43;;;;;;;68.72;51.83;;;9.40;99.90;;;;;;5053144;28;20217;-66
2022/03/17 08:19:10;;;;;;;68.88;52.55;;;9.50;99.90;;;;;;5053535;28;20240;-65
2022/03/17 08:21:38;;;;;;;70.28;53.95;;;9.50;99.90;;;;;;5052879;28;20229;-65
2022/03/17 08:24:06;;;;;;;69.45;55.33;;;9.60;99.90;;;;;;5053458;28;20402;-65
2022/03/17 08:26:33;;;;;;;67.88;54.50;;;9.70;99.90;;;;;;5054341;28;20221;-66
2022/03/17 08:29:00;;;;;;;67.22;53.42;;;9.70;99.90;;;;;;5054514;28;20220;-65
2022/03/17 08:31:28;;;;;;;69.70;54.60;;;9.80;99.90;;;;;;5054955;28;20235;-66
2022/03/17 08:33:56;;;;;;;61.10;51.63;;;9.80;99.90;;;;;;5054437;28;20679;-65
2022/03/17 08:36:23;;;;;;;78.15;56.70;;;9.90;99.90;;;;;;5051761;28;20248;-65
2022/03/17 08:38:51;;;;;;;70.00;55.55;;;9.80;99.90;;;;;;5046033;28;20263;-64
2022/03/17 08:41:18;;;;;;;67.10;53.85;;;9.70;99.90;;;;;;5052279;28;20687;-64
2022/03/17 08:43:45;;;;;;;64.90;55.05;;;9.80;99.90;;;;;;5052408;28;20569;-64
2022/03/17 08:51:40;;;;;;;73.50;54.22;;;10.00;99.90;;;;;;5052100;28;20391;-65
2022/03/17 08:54:10;;;;;;;68.55;54.50;;;10.00;99.90;;;;;;5052674;28;20225;-65
2022/03/17 08:56:37;;;;;;;74.88;55.60;;;10.10;99.90;;;;;;5053553;28;20227;-66
2022/03/17 08:59:05;;;;;;;69.57;54.05;;;10.00;99.90;;;;;;5053425;28;20302;-65
2022/03/17 09:01:32;;;;;;;67.85;53.38;;;10.00;99.90;;;;;;5053999;28;20738;-66
2022/03/17 09:04:00;;;;;;;69.65;54.13;;;10.00;99.90;;;;;;5053828;28;20228;-65
2022/03/17 09:06:28;;;;;;;64.85;52.80;;;10.00;99.90;;;;;;5054247;28;20229;-65
2022/03/17 09:08:55;;;;;;;66.05;50.55;;;9.90;99.90;;;;;;5053696;28;20225;-65
2022/03/17 09:11:23;;;;;;;66.00;51.25;;;9.90;99.90;;;;;;5054251;28;20233;-66
2022/03/17 09:13:50;;;;;;;65.60;52.88;;;10.00;99.90;;;;;;5053795;28;20233;-65
2022/03/17 09:16:17;;;;;;;65.57;56.03;;;10.10;99.90;;;;;;5053020;28;20591;-65
2022/03/17 09:18:44;;;;;;;68.93;51.92;;;10.10;99.90;;;;;;5046219;28;20679;-65
2022/03/17 09:21:11;;;;;;;62.33;52.13;;;10.10;99.80;;;;;;5053825;28;20225;-64
2022/03/17 09:23:38;;;;;;;62.30;49.95;;;10.20;99.80;;;;;;5053921;28;20300;-65
2022/03/17 09:26:05;;;;;;;66.72;52.85;;;10.20;99.70;;;;;;5053560;28;20303;-65
2022/03/17 09:28:33;;;;;;;65.07;52.90;;;10.30;99.60;;;;;;5052854;28;20229;-65
2022/03/17 09:31:00;;;;;;;66.45;53.05;;;10.40;99.60;;;;;;5052052;28;20228;-65
2022/03/17 09:33:27;;;;;;;72.28;53.67;;;10.40;99.30;;;;;;5052547;28;20227;-65
2022/03/17 09:35:54;;;;;;;65.90;52.95;;;10.50;99.10;;;;;;5038785;28;20224;-65
2022/03/17 09:38:22;;;;;;;72.25;51.92;;;10.40;99.10;;;;;;5052513;28;20225;-65
2022/03/17 09:40:49;;;;;;;65.68;50.63;;;10.40;98.90;;;;;;5048714;28;20229;-65
2022/03/17 09:43:28;;;;;;;68.43;51.83;;;10.40;99.00;;;;;;5050668;28;20224;-66
2022/03/17 09:45:58;;;;;;;66.80;53.97;;;10.50;99.10;;;;;;5051030;28;20232;-67
2022/03/17 09:48:27;;;;;;;63.80;51.50;;;10.50;98.80;;;;;;5051235;28;20277;-66
2022/03/17 09:50:57;;;;;;;63.53;50.42;;;10.60;98.70;;;;;;5050755;28;20572;-64
2022/03/17 09:53:24;;;;;;;66.53;51.50;;;10.60;98.70;;;;;;5051131;28;20224;-65
2022/03/17 09:55:51;;;;;;;64.97;52.50;;;10.70;98.60;;;;;;5051426;28;20225;-66
2022/03/17 09:58:19;;;;;;;65.55;52.85;;;10.70;98.50;;;;;;5052125;28;20224;-66
2022/03/17 10:00:49;;;;;;;65.13;53.60;;;10.80;98.40;;;;;;5051464;28;20224;-66
2022/03/17 10:03:17;;;;;;;58.40;47.80;;;10.80;98.20;;;;;;5052728;28;20300;-66
2022/03/17 10:05:46;;;;;;;65.50;53.10;;;10.90;98.30;;;;;;5053096;28;20675;-66
2022/03/17 10:08:13;;;;;;;62.33;51.60;;;11.00;98.00;;;;;;5053131;28;20225;-66
2022/03/17 10:10:42;;;;;;;61.83;51.22;;;11.00;97.90;;;;;;5053226;28;20229;-66
2022/03/17 10:13:13;;;;;;;61.72;51.38;;;11.10;97.90;;;;;;5052862;28;20539;-66
2022/03/17 10:15:40;;;;;;;55.63;47.28;;;11.20;97.70;;;;;;5053287;28;20679;-65
2022/03/17 10:18:21;;;;;;;54.90;46.58;;;11.30;97.50;;;;;;5052781;28;20236;-65
2022/03/17 10:20:49;;;;;;;59.90;48.90;;;11.40;97.30;;;;;;5052679;28;20308;-65
2022/03/17 10:23:24;;;;;;;58.60;49.78;;;11.50;96.90;;;;;;5053231;28;20538;-66
2022/03/17 10:25:57;;;;;;;55.15;46.10;;;11.50;96.30;;;;;;5052540;28;20773;-66
2022/03/17 10:28:26;;;;;;;58.28;46.90;;;11.50;96.40;;;;;;5052433;28;20261;-66
2022/03/17 10:31:03;;;;;;;49.83;43.25;;;11.60;96.40;;;;;;5052630;28;20243;-66
2022/03/17 10:33:31;;;;;;;62.15;49.42;;;11.70;96.30;;;;;;5052999;28;20221;-66
2022/03/17 10:36:19;;;;;;;51.38;42.58;;;11.80;96.10;;;;;;5052360;28;20695;-66
2022/03/17 10:38:46;;;;;;;54.45;43.60;;;11.90;96.10;;;;;;5052363;28;20568;-66
2022/03/17 10:41:13;;;;;;;54.17;45.72;;;12.00;95.80;;;;;;5052600;28;20225;-64
2022/03/17 10:43:42;;;;;;;52.70;44.97;;;12.10;95.70;;;;;;5052831;28;20300;-65
2022/03/17 10:46:11;;;;;;;61.35;47.15;;;12.20;95.50;;;;;;5052300;28;20225;-65
2022/03/17 10:48:53;;;;;;;56.58;46.85;;;12.20;94.90;;;;;;5052759;28;20233;-65
2022/03/17 10:51:31;;;;;;;60.60;48.97;;;12.20;94.90;;;;;;5052436;28;20345;-65
2022/03/17 10:54:03;;;;;;;62.00;47.25;;;12.30;94.80;;;;;;5052358;28;20225;-65
2022/03/17 10:56:30;;;;;;;53.28;47.47;;;12.20;94.50;;;;;;5052670;28;20290;-65
2022/03/17 10:58:59;;;;;;;59.25;50.83;;;12.30;94.60;;;;;;5052150;28;20837;-66
2022/03/17 11:01:36;;;;;;;56.40;47.33;;;12.30;94.40;;;;;;5052717;28;20234;-66
2022/03/17 11:04:05;;;;;;;55.22;46.83;;;12.20;94.20;;;;;;5052168;28;20224;-66
2022/03/17 11:06:32;;;;;;;57.28;46.22;;;12.20;94.20;;;;;;5052638;28;20757;-66
2022/03/17 11:09:00;;;;;;;54.50;44.97;;;12.20;94.20;;;;;;5052054;28;20244;-66
2022/03/17 11:11:28;;;;;;;57.33;49.38;;;12.20;94.30;;;;;;5052447;28;20217;-66
2022/03/17 11:13:56;;;;;;;55.03;46.25;;;12.20;94.00;;;;;;5052421;28;20225;-66
2022/03/17 11:16:25;;;;;;;56.40;46.92;;;12.20;94.00;;;;;;5052102;28;20673;-65
2022/03/17 11:18:55;;;;;;;57.75;47.00;;;12.30;94.00;;;;;;5052706;28;20248;-65
2022/03/17 11:21:29;;;;;;;51.03;45.40;;;12.30;93.70;;;;;;5051903;28;20229;-65
2022/03/17 11:24:01;;;;;;;51.08;45.53;;;12.40;93.60;;;;;;5052358;28;20228;-65
2022/03/17 11:26:34;;;;;;;60.83;45.53;;;12.40;93.70;;;;;;5052328;28;20323;-66
2022/03/17 11:29:05;;;;;;;50.03;43.40;;;12.40;93.20;;;;;;5052468;28;20296;-65
2022/03/17 11:31:54;;;;;;;55.03;46.45;;;12.50;93.20;;;;;;5052164;28;20609;-65
2022/03/17 11:34:49;;;;;;;53.10;45.00;;;12.50;92.90;;;;;;5051942;28;20626;-66
2022/03/17 11:37:35;;;;;;;52.78;44.97;;;12.50;93.00;;;;;;5016731;28;20225;-66
2022/03/17 11:40:08;;;;;;;49.63;42.92;;;12.60;92.70;;;;;;5054670;28;20232;-66
2022/03/17 11:42:41;;;;;;;54.10;43.97;;;12.60;92.60;;;;;;5055863;28;20224;-66
2022/03/17 11:45:40;;;;;;;50.50;44.92;;;12.60;92.60;;;;;;5056106;28;20538;-66
2022/03/17 11:48:12;;;;;;;53.47;44.22;;;12.70;92.70;;;;;;5055910;28;20221;-66
2022/03/17 11:50:43;;;;;;;60.83;44.78;;;12.80;92.40;;;;;;5055803;28;20322;-66
2022/03/17 11:53:21;;;;;;;49.45;43.97;;;12.80;92.30;;;;;;5055550;28;20324;-65
2022/03/17 11:55:53;;;;;;;49.75;42.50;;;12.80;92.00;;;;;;5055873;28;20695;-65
2022/03/17 11:58:25;;;;;;;50.20;43.55;;;12.70;91.70;;;;;;5055564;28;20221;-65
2022/03/17 12:00:54;;;;;;;50.28;42.03;;;12.80;91.80;;;;;;5055605;28;20232;-65
2022/03/17 12:03:29;;;;;;;49.05;42.55;;;12.80;91.70;;;;;;5055650;28;20808;-65
2022/03/17 12:06:05;;;;;;;48.33;42.90;;;12.80;91.60;;;;;;5055554;28;20232;-65
2022/03/17 12:08:36;;;;;;;46.17;41.25;;;12.90;91.60;;;;;;5055964;28;20208;-66
2022/03/17 12:11:14;;;;;;;50.85;42.15;;;12.90;91.40;;;;;;5055173;28;20861;-66
2022/03/17 12:13:41;;;;;;;50.30;44.08;;;13.00;91.40;;;;;;5055297;28;20224;-66
2022/03/17 12:16:12;;;;;;;52.03;42.45;;;13.00;91.40;;;;;;5055504;28;20255;-65
2022/03/17 12:19:04;;;;;;;47.08;42.20;;;13.00;91.00;;;;;;5055414;28;20224;-65
2022/03/17 12:22:06;;;;;;;48.88;40.35;;;13.00;91.10;;;;;;5055138;28;20233;-66
2022/03/17 12:24:35;;;;;;;41.75;36.15;;;13.10;91.00;;;;;;5054981;28;20224;-65
2022/03/17 12:27:04;;;;;;;43.83;38.88;;;13.10;90.90;;;;;;5055331;28;20243;-65
2022/03/17 12:29:32;;;;;;;47.38;39.30;;;13.20;90.50;;;;;;5054825;28;20702;-65
2022/03/17 12:32:05;;;;;;;43.00;35.85;;;13.20;90.00;;;;;;5055109;28;20225;-65
2022/03/17 12:34:33;;;;;;;43.00;34.00;;;13.20;89.40;;;;;;5054811;28;20725;-65
2022/03/17 12:37:01;;;;;;;41.55;36.00;;;13.30;89.30;;;;;;5055028;28;20304;-66
2022/03/17 12:39:29;;;;;;;42.38;35.78;;;13.40;89.40;;;;;;5054834;28;20225;-65
2022/03/17 12:41:57;;;;;;;38.50;33.63;;;13.40;89.00;;;;;;5054768;28;20236;-65
2022/03/17 12:44:25;;;;;;;42.33;34.85;;;13.50;89.10;;;;;;5054543;28;20233;-66
2022/03/17 12:46:52;;;;;;;40.03;35.47;;;13.60;88.70;;;;;;5054936;28;20221;-64
2022/03/17 12:49:20;;;;;;;39.05;34.38;;;13.60;87.80;;;;;;5054423;28;20467;-65
2022/03/17 12:51:48;;;;;;;37.10;33.20;;;13.70;87.10;;;;;;5054025;28;20233;-65
2022/03/17 12:54:15;;;;;;;37.20;33.25;;;13.70;87.10;;;;;;5054845;28;20866;-65
2022/03/17 12:56:52;;;;;;;40.77;35.03;;;13.80;87.20;;;;;;5054229;28;20233;-65
2022/03/17 12:59:21;;;;;;;38.72;34.35;;;13.80;86.00;;;;;;5054534;28;20467;-65